createdAt,value
2022-08-22T00:00:24.181Z,16.70
2022-08-22T00:02:53.247Z,19.10
2022-08-22T00:03:02.139Z,17.40
2022-08-22T00:03:08.734Z,18.20
2022-08-22T00:03:18.809Z,16.70
2022-08-22T00:05:55.818Z,16.70
2022-08-22T00:08:26.495Z,16.70
2022-08-22T00:10:57.904Z,16.60
2022-08-22T00:13:31.279Z,16.70
2022-08-22T00:16:04.279Z,16.70
2022-08-22T00:18:36.207Z,16.70
2022-08-22T00:21:09.746Z,16.70
2022-08-22T00:23:42.510Z,16.70
2022-08-22T00:26:17.385Z,16.70
2022-08-22T00:28:48.141Z,16.70
2022-08-22T00:31:24.402Z,16.60
2022-08-22T00:33:54.879Z,16.60
2022-08-22T00:36:28.526Z,16.50
2022-08-22T00:39:00.171Z,16.50
2022-08-22T00:41:38.331Z,16.50
2022-08-22T00:44:18.355Z,16.60
2022-08-22T00:47:02.599Z,16.60
2022-08-22T00:49:40.239Z,16.50
2022-08-22T00:52:17.526Z,16.50
2022-08-22T00:55:02.794Z,16.50
2022-08-22T00:57:43.323Z,16.50
2022-08-22T01:00:17.817Z,16.50
2022-08-22T01:03:02.836Z,17.20
2022-08-22T01:05:40.889Z,16.40
2022-08-22T01:08:18.010Z,16.40
2022-08-22T01:10:57.855Z,16.40
2022-08-22T01:13:34.518Z,16.40
2022-08-22T01:16:09.940Z,16.30
2022-08-22T01:18:56.661Z,16.30
2022-08-22T01:21:37.286Z,16.30
2022-08-22T01:24:24.295Z,16.20
2022-08-22T01:27:14.895Z,16.20
2022-08-22T01:29:55.192Z,16.20
2022-08-22T01:32:50.470Z,16.10
2022-08-22T01:35:37.027Z,16.10
2022-08-22T01:38:22.160Z,16.10
2022-08-22T01:41:18.093Z,16.10
2022-08-22T01:44:13.761Z,16.10
2022-08-22T01:46:49.049Z,16.00
2022-08-22T01:49:20.445Z,16.00
2022-08-22T01:51:52.682Z,16.00
2022-08-22T01:54:41.971Z,15.90
2022-08-22T01:57:11.704Z,15.90
2022-08-22T01:59:42.625Z,15.90
2022-08-22T02:02:29.619Z,15.90
2022-08-22T02:05:03.885Z,15.90
2022-08-22T02:07:41.334Z,15.90
2022-08-22T02:10:14.926Z,15.90
2022-08-22T02:12:45.521Z,15.90
2022-08-22T02:15:18.289Z,15.90
2022-08-22T02:17:55.858Z,15.90
2022-08-22T02:20:26.400Z,15.90
2022-08-22T02:22:59.747Z,15.90
2022-08-22T02:25:32.739Z,15.80
2022-08-22T02:28:08.084Z,15.90
2022-08-22T02:30:45.579Z,15.90
2022-08-22T02:33:17.790Z,15.90
2022-08-22T02:35:50.365Z,15.90
2022-08-22T02:38:26.254Z,15.90
2022-08-22T02:41:02.074Z,15.90
2022-08-22T02:43:37.684Z,15.90
2022-08-22T02:46:13.200Z,15.90
2022-08-22T02:48:44.859Z,15.90
2022-08-22T02:51:16.979Z,15.90
2022-08-22T02:53:51.135Z,15.90
2022-08-22T02:56:23.091Z,15.90
2022-08-22T02:58:54.223Z,15.80
2022-08-22T03:01:41.149Z,15.90
2022-08-22T03:04:24.545Z,15.90
2022-08-22T03:07:09.163Z,15.80
2022-08-22T03:09:43.043Z,15.80
2022-08-22T03:12:16.698Z,15.90
2022-08-22T03:14:48.594Z,15.80
2022-08-22T03:17:20.689Z,15.80
2022-08-22T03:19:54.815Z,15.90
2022-08-22T03:22:26.673Z,15.90
2022-08-22T03:25:03.045Z,16.00
2022-08-22T03:27:35.834Z,16.00
2022-08-22T03:30:08.832Z,16.00
2022-08-22T03:32:55.836Z,16.10
2022-08-22T03:35:32.417Z,16.10
2022-08-22T03:38:12.538Z,16.10
2022-08-22T03:40:50.417Z,16.10
2022-08-22T03:43:36.953Z,16.20
2022-08-22T03:46:24.615Z,16.30
2022-08-22T03:49:12.138Z,16.30
2022-08-22T03:51:44.848Z,16.30
2022-08-22T03:54:22.823Z,16.30
2022-08-22T03:57:07.198Z,16.40
2022-08-22T03:59:54.384Z,16.40
2022-08-22T04:02:43.084Z,16.40
2022-08-22T04:05:31.797Z,16.40
2022-08-22T04:08:21.117Z,16.30
2022-08-22T04:11:03.660Z,16.30
2022-08-22T04:13:41.495Z,16.30
2022-08-22T04:16:29.976Z,16.40
2022-08-22T04:19:17.064Z,16.40
2022-08-22T04:21:55.964Z,16.50
2022-08-22T04:24:35.524Z,16.60
2022-08-22T04:27:08.201Z,16.60
2022-08-22T04:29:39.910Z,16.70
2022-08-22T04:32:14.594Z,16.80
2022-08-22T04:34:45.754Z,16.80
2022-08-22T04:37:17.295Z,17.00
2022-08-22T04:39:49.388Z,17.10
2022-08-22T04:42:35.111Z,17.10
2022-08-22T04:45:09.344Z,17.20
2022-08-22T04:47:40.280Z,17.30
2022-08-22T04:50:11.347Z,17.40
2022-08-22T04:52:48.290Z,17.50
2022-08-22T04:55:23.882Z,17.60
2022-08-22T04:57:57.219Z,17.60
2022-08-22T05:00:36.507Z,17.70
2022-08-22T05:03:10.707Z,17.80
2022-08-22T05:05:40.657Z,17.90
2022-08-22T05:08:11.722Z,18.00
2022-08-22T05:10:42.406Z,18.00
2022-08-22T05:13:13.387Z,18.10
2022-08-22T05:15:45.386Z,18.20
2022-08-22T05:18:16.681Z,18.20
2022-08-22T05:20:46.721Z,18.30
2022-08-22T05:23:19.222Z,18.40
2022-08-22T05:25:49.682Z,18.40
2022-08-22T05:28:20.164Z,18.50
2022-08-22T05:30:50.296Z,18.60
2022-08-22T05:33:24.050Z,18.70
2022-08-22T05:35:57.949Z,18.70
2022-08-22T05:38:30.033Z,18.70
2022-08-22T05:41:02.595Z,18.80
2022-08-22T05:43:32.616Z,18.90
2022-08-22T05:46:03.814Z,19.00
2022-08-22T05:48:37.688Z,18.90
2022-08-22T05:51:12.991Z,19.00
2022-08-22T05:53:43.413Z,19.00
2022-08-22T05:56:14.035Z,19.10
2022-08-22T05:58:46.688Z,19.20
2022-08-22T06:01:28.671Z,19.20
2022-08-22T06:04:09.594Z,19.30
2022-08-22T06:06:41.016Z,19.40
2022-08-22T06:09:13.742Z,19.50
2022-08-22T06:11:44.979Z,19.50
2022-08-22T06:14:28.367Z,19.60
2022-08-22T06:17:01.380Z,19.60
2022-08-22T06:19:30.522Z,19.70
2022-08-22T06:21:59.149Z,19.70
2022-08-22T06:24:29.125Z,19.80
2022-08-22T06:27:00.284Z,19.90
2022-08-22T06:29:34.358Z,20.00
2022-08-22T06:32:10.427Z,20.10
2022-08-22T06:34:41.171Z,20.20
2022-08-22T06:37:12.685Z,20.40
2022-08-22T06:39:43.360Z,20.40
2022-08-22T06:42:16.745Z,20.50
2022-08-22T06:44:47.401Z,20.60
2022-08-22T06:47:18.408Z,20.70
2022-08-22T06:49:47.471Z,20.80
2022-08-22T06:52:21.270Z,20.80
2022-08-22T06:54:52.775Z,20.80
2022-08-22T06:57:27.118Z,20.90
2022-08-22T06:59:56.824Z,21.00
2022-08-22T07:02:30.945Z,21.10
2022-08-22T07:05:00.257Z,21.20
2022-08-22T07:07:28.942Z,21.30
2022-08-22T07:09:58.975Z,21.40
2022-08-22T07:12:30.683Z,21.50
2022-08-22T07:15:00.763Z,21.50
2022-08-22T07:17:35.947Z,21.60
2022-08-22T07:20:10.761Z,21.80
2022-08-22T07:22:39.530Z,21.90
2022-08-22T07:25:10.999Z,21.90
2022-08-22T07:27:49.016Z,22.10
2022-08-22T07:30:27.373Z,22.10
2022-08-22T07:33:17.765Z,22.30
2022-08-22T07:35:53.638Z,22.40
2022-08-22T07:38:30.690Z,22.50
2022-08-22T07:41:02.277Z,22.60
2022-08-22T07:43:32.656Z,22.60
2022-08-22T07:46:03.713Z,22.70
2022-08-22T07:48:48.515Z,22.80
2022-08-22T07:51:29.073Z,22.80
2022-08-22T07:54:00.960Z,22.90
2022-08-22T07:56:31.830Z,23.10
2022-08-22T07:59:09.353Z,23.20
2022-08-22T08:01:46.213Z,23.40
2022-08-22T08:04:20.775Z,23.80
2022-08-22T08:06:52.731Z,24.10
2022-08-22T08:09:22.232Z,24.30
2022-08-22T08:11:52.735Z,24.30
2022-08-22T08:14:22.415Z,24.20
2022-08-22T08:17:06.479Z,24.20
2022-08-22T08:19:39.441Z,24.20
2022-08-22T08:22:08.187Z,24.20
2022-08-22T08:24:40.558Z,24.20
2022-08-22T08:27:31.931Z,24.20
2022-08-22T08:30:01.933Z,24.10
2022-08-22T08:32:33.586Z,24.20
2022-08-22T08:35:09.059Z,24.20
2022-08-22T08:37:43.050Z,24.10
2022-08-22T08:40:19.658Z,24.10
2022-08-22T08:43:12.329Z,24.20
2022-08-22T08:45:49.551Z,24.30
2022-08-22T08:48:27.251Z,24.50
2022-08-22T08:51:06.072Z,24.50
2022-08-22T08:53:53.032Z,24.50
2022-08-22T08:56:26.876Z,24.50
2022-08-22T08:59:01.781Z,24.50
2022-08-22T09:01:54.210Z,24.70
2022-08-22T09:04:34.435Z,24.90
2022-08-22T09:07:18.794Z,24.90
2022-08-22T09:09:57.814Z,24.80
2022-08-22T09:13:11.259Z,24.60
2022-08-22T09:15:59.678Z,24.70
2022-08-22T09:18:49.625Z,25.10
2022-08-22T09:21:31.181Z,25.30
2022-08-22T09:24:13.335Z,25.70
2022-08-22T09:26:48.285Z,25.90
2022-08-22T09:29:28.965Z,26.00
2022-08-22T09:32:04.613Z,25.90
2022-08-22T09:34:35.824Z,25.90
2022-08-22T09:37:14.016Z,25.70
2022-08-22T09:39:50.450Z,25.50
2022-08-22T09:42:21.884Z,25.30
2022-08-22T09:44:59.021Z,25.30
2022-08-22T09:47:32.851Z,25.20
2022-08-22T09:50:12.281Z,25.20
2022-08-22T09:52:50.085Z,25.40
2022-08-22T09:55:35.442Z,25.60
2022-08-22T09:58:11.320Z,25.70
2022-08-22T10:00:46.875Z,25.80
2022-08-22T10:03:24.047Z,25.90
2022-08-22T10:05:58.213Z,26.00
2022-08-22T10:08:38.010Z,26.10
2022-08-22T10:11:19.560Z,26.20
2022-08-22T10:13:57.620Z,26.60
2022-08-22T10:16:37.062Z,26.80
2022-08-22T10:19:12.207Z,27.20
2022-08-22T10:21:46.377Z,27.70
2022-08-22T10:24:25.089Z,27.80
2022-08-22T10:26:58.115Z,28.00
2022-08-22T10:29:38.997Z,28.30
2022-08-22T10:32:14.853Z,28.30
2022-08-22T10:34:47.887Z,28.40
2022-08-22T10:37:23.825Z,28.20
2022-08-22T10:39:58.625Z,28.20
2022-08-22T10:42:34.945Z,28.00
2022-08-22T10:45:23.460Z,28.00
2022-08-22T10:48:13.466Z,27.80
2022-08-22T10:50:44.387Z,27.80
2022-08-22T10:53:35.171Z,27.70
2022-08-22T10:56:11.050Z,27.60
2022-08-22T10:58:44.127Z,27.60
2022-08-22T11:01:38.106Z,27.30
2022-08-22T11:04:06.598Z,27.40
2022-08-22T11:06:42.591Z,27.40
2022-08-22T11:09:22.919Z,27.30
2022-08-22T11:11:56.362Z,27.40
2022-08-22T11:14:44.748Z,27.30
2022-08-22T11:17:30.929Z,27.20
2022-08-22T11:20:15.920Z,27.00
2022-08-22T11:22:55.651Z,27.00
2022-08-22T11:25:38.406Z,27.00
2022-08-22T11:28:25.442Z,27.10
2022-08-22T11:31:07.244Z,27.20
2022-08-22T11:33:46.974Z,27.30
2022-08-22T11:36:26.132Z,27.50
2022-08-22T11:39:01.312Z,27.50
2022-08-22T11:41:34.088Z,27.60
2022-08-22T11:44:04.111Z,27.80
2022-08-22T11:46:35.654Z,27.70
2022-08-22T11:49:13.600Z,27.60
2022-08-22T11:51:57.429Z,27.70
2022-08-22T11:54:31.369Z,27.50
2022-08-22T11:57:05.667Z,27.60
2022-08-22T11:59:43.046Z,27.40
2022-08-22T12:02:19.415Z,27.60
2022-08-22T12:04:51.348Z,27.80
2022-08-22T12:07:21.607Z,27.90
2022-08-22T12:12:35.615Z,28.00
2022-08-22T12:15:08.811Z,28.00
2022-08-22T12:17:55.797Z,27.90
2022-08-22T12:20:45.572Z,28.10
2022-08-22T12:23:30.370Z,28.30
2022-08-22T12:26:16.405Z,28.70
2022-08-22T12:28:52.911Z,29.00
2022-08-22T12:31:26.869Z,29.00
2022-08-22T12:34:06.500Z,28.80
2022-08-22T12:36:50.637Z,28.90
2022-08-22T12:39:34.166Z,29.20
2022-08-22T12:42:12.247Z,29.30
2022-08-22T12:44:46.340Z,28.80
2022-08-22T12:47:34.381Z,28.80
2022-08-22T12:50:13.134Z,29.00
2022-08-22T12:52:50.995Z,29.20
2022-08-22T12:55:25.482Z,29.10
2022-08-22T12:58:01.371Z,29.00
2022-08-22T13:00:34.525Z,28.90
2022-08-22T13:03:05.359Z,28.60
2022-08-22T13:05:40.390Z,28.50
2022-08-22T13:08:12.690Z,28.60
2022-08-22T13:10:44.818Z,28.60
2022-08-22T13:13:16.819Z,28.60
2022-08-22T13:18:29.729Z,28.60
2022-08-22T13:21:03.479Z,28.50
2022-08-22T13:23:39.901Z,28.50
2022-08-22T13:26:12.770Z,28.50
2022-08-22T13:31:39.123Z,28.50
2022-08-22T13:34:13.301Z,28.50
2022-08-22T13:36:51.691Z,28.40
2022-08-22T13:39:25.833Z,28.40
2022-08-22T13:41:56.295Z,28.30
2022-08-22T13:47:13.992Z,28.00
2022-08-22T13:49:45.644Z,28.00
2022-08-22T13:52:29.005Z,27.80
2022-08-22T13:55:01.658Z,27.80
2022-08-22T13:57:32.602Z,27.90
2022-08-22T14:00:06.953Z,28.10
2022-08-22T14:02:43.161Z,28.10
2022-08-22T14:05:14.139Z,28.00
2022-08-22T14:07:53.029Z,28.00
2022-08-22T14:10:24.661Z,27.80
2022-08-22T14:13:17.512Z,27.80
2022-08-22T14:15:46.382Z,27.80
2022-08-22T14:18:18.467Z,27.70
2022-08-22T14:20:48.438Z,27.70
2022-08-22T14:23:27.267Z,27.70
2022-08-22T14:25:57.221Z,27.60
2022-08-22T14:28:28.316Z,27.60
2022-08-22T14:31:02.408Z,27.80
2022-08-22T14:33:35.085Z,27.70
2022-08-22T14:36:11.353Z,27.70
2022-08-22T14:38:46.365Z,27.70
2022-08-22T14:41:52.382Z,27.70
2022-08-22T14:44:24.054Z,27.80
2022-08-22T14:46:55.860Z,27.90
2022-08-22T14:49:28.692Z,27.90
2022-08-22T14:52:00.494Z,27.90
2022-08-22T14:54:30.957Z,27.80
2022-08-22T14:57:00.861Z,27.70
2022-08-22T14:59:35.431Z,27.60
2022-08-22T15:02:06.725Z,27.50
2022-08-22T15:04:38.055Z,27.60
2022-08-22T15:07:07.896Z,27.60
2022-08-22T15:09:41.524Z,27.60
2022-08-22T15:12:22.427Z,27.50
2022-08-22T15:14:53.570Z,27.40
2022-08-22T15:17:36.614Z,27.40
2022-08-22T15:20:13.359Z,27.50
2022-08-22T15:22:45.444Z,27.50
2022-08-22T15:25:17.481Z,27.40
2022-08-22T15:27:49.362Z,27.20
2022-08-22T15:30:21.270Z,27.10
2022-08-22T15:32:50.230Z,27.10
2022-08-22T15:35:29.963Z,27.10
2022-08-22T15:38:00.383Z,27.00
2022-08-22T15:40:34.700Z,26.90
2022-08-22T15:43:24.304Z,26.80
2022-08-22T15:45:54.165Z,26.70
2022-08-22T15:48:27.735Z,26.70
2022-08-22T15:50:58.024Z,26.70
2022-08-22T15:53:29.208Z,26.60
2022-08-22T15:56:17.470Z,26.50
2022-08-22T15:58:49.532Z,26.40
2022-08-22T16:01:20.816Z,26.30
2022-08-22T16:03:56.076Z,26.30
2022-08-22T16:06:45.553Z,26.20
2022-08-22T16:09:34.603Z,26.20
2022-08-22T16:12:05.368Z,26.10
2022-08-22T16:14:49.904Z,26.10
2022-08-22T16:17:38.316Z,26.00
2022-08-22T16:20:21.863Z,26.00
2022-08-22T16:23:09.580Z,25.90
2022-08-22T16:25:56.705Z,25.90
2022-08-22T16:28:54.425Z,25.80
2022-08-22T16:31:21.444Z,25.80
2022-08-22T16:33:50.210Z,25.70
2022-08-22T16:36:37.610Z,25.60
2022-08-22T16:39:10.209Z,25.50
2022-08-22T16:41:41.848Z,25.50
2022-08-22T16:44:21.502Z,25.30
2022-08-22T16:46:53.347Z,25.10
2022-08-22T16:49:28.287Z,25.00
2022-08-22T16:52:15.826Z,24.80
2022-08-22T16:54:46.279Z,24.70
2022-08-22T16:57:19.179Z,24.60
2022-08-22T17:00:04.344Z,24.50
2022-08-22T17:02:43.845Z,24.50
2022-08-22T17:05:20.810Z,24.50
2022-08-22T17:08:02.706Z,24.40
2022-08-22T17:10:47.316Z,24.30
2022-08-22T17:13:26.382Z,24.30
2022-08-22T17:16:01.955Z,24.20
2022-08-22T17:18:41.247Z,24.10
2022-08-22T17:21:11.841Z,24.00
2022-08-22T17:23:44.013Z,23.90
2022-08-22T17:26:20.127Z,23.80
2022-08-22T17:28:58.089Z,23.70
2022-08-22T17:31:33.446Z,23.60
2022-08-22T17:34:08.521Z,23.60
2022-08-22T17:36:45.516Z,23.50
2022-08-22T17:39:20.691Z,23.50
2022-08-22T17:41:51.304Z,23.50
2022-08-22T17:44:23.863Z,23.50
2022-08-22T17:46:55.455Z,23.40
2022-08-22T17:49:31.141Z,23.30
2022-08-22T17:52:07.042Z,23.30
2022-08-22T17:54:40.442Z,23.20
2022-08-22T17:57:11.464Z,23.20
2022-08-22T17:59:46.902Z,23.10
2022-08-22T18:02:18.844Z,23.10
2022-08-22T18:04:52.348Z,23.00
2022-08-22T18:07:45.807Z,23.00
2022-08-22T18:10:21.662Z,23.00
2022-08-22T18:12:54.879Z,22.90
2022-08-22T18:15:26.590Z,22.90
2022-08-22T18:17:58.736Z,22.80
2022-08-22T18:20:31.690Z,22.70
2022-08-22T18:23:02.713Z,22.60
2022-08-22T18:25:34.644Z,22.60
2022-08-22T18:28:06.173Z,22.60
2022-08-22T18:30:37.535Z,22.50
2022-08-22T18:33:08.012Z,22.50
2022-08-22T18:35:44.209Z,22.50
2022-08-22T18:38:23.117Z,22.40
2022-08-22T18:40:55.155Z,22.30
2022-08-22T18:43:36.274Z,22.30
2022-08-22T18:46:25.941Z,22.20
2022-08-22T18:49:14.719Z,22.20
2022-08-22T18:51:44.873Z,22.20
2022-08-22T18:54:29.909Z,22.20
2022-08-22T18:57:04.078Z,22.20
2022-08-22T18:59:42.188Z,22.30
2022-08-22T19:02:18.147Z,22.20
2022-08-22T19:04:57.583Z,22.10
2022-08-22T19:07:35.462Z,22.10
2022-08-22T19:10:27.724Z,22.10
2022-08-22T19:13:05.290Z,22.10
2022-08-22T19:15:39.062Z,22.00
2022-08-22T19:18:14.192Z,21.90
2022-08-22T19:21:00.130Z,21.90
2022-08-22T19:23:47.842Z,21.90
2022-08-22T19:26:27.911Z,21.90
2022-08-22T19:28:58.105Z,21.90
2022-08-22T19:31:43.018Z,21.80
2022-08-22T19:34:17.641Z,21.70
2022-08-22T19:36:47.157Z,21.60
2022-08-22T19:39:32.158Z,21.60
2022-08-22T19:42:02.398Z,21.60
2022-08-22T19:44:37.724Z,21.60
2022-08-22T19:47:13.908Z,21.50
2022-08-22T19:49:45.639Z,21.60
2022-08-22T19:52:21.089Z,21.60
2022-08-22T19:54:57.489Z,21.60
2022-08-22T19:57:37.350Z,21.70
2022-08-22T20:00:09.649Z,21.60
2022-08-22T20:02:43.830Z,21.60
2022-08-22T20:05:30.642Z,21.50
2022-08-22T20:08:18.157Z,21.40
2022-08-22T20:10:53.968Z,21.30
2022-08-22T20:13:25.231Z,21.20
2022-08-22T20:16:10.293Z,21.80
2022-08-22T20:19:06.356Z,21.10
2022-08-22T20:21:41.200Z,21.00
2022-08-22T20:24:11.097Z,21.00
2022-08-22T20:26:57.555Z,20.90
2022-08-22T20:29:32.747Z,20.90
2022-08-22T20:32:01.921Z,20.80
2022-08-22T20:34:33.468Z,20.80
2022-08-22T20:37:27.278Z,20.80
2022-08-22T20:39:59.061Z,20.80
2022-08-22T20:42:32.083Z,20.70
2022-08-22T20:45:08.529Z,20.70
2022-08-22T20:47:43.539Z,20.60
2022-08-22T20:50:19.229Z,20.60
2022-08-22T20:52:51.833Z,20.50
2022-08-22T20:55:26.970Z,20.50
2022-08-22T20:58:02.620Z,20.50
2022-08-22T21:00:34.591Z,20.50
2022-08-22T21:03:06.891Z,20.40
2022-08-22T21:05:38.191Z,20.40
2022-08-22T21:08:08.042Z,20.40
2022-08-22T21:10:55.427Z,20.40
2022-08-22T21:13:24.911Z,20.40
2022-08-22T21:15:56.352Z,20.40
2022-08-22T21:18:26.747Z,20.30
2022-08-22T21:20:55.857Z,20.40
2022-08-22T21:23:24.637Z,20.40
2022-08-22T21:25:56.681Z,20.30
2022-08-22T21:28:29.730Z,20.30
2022-08-22T21:31:01.666Z,20.30
2022-08-22T21:33:30.357Z,20.20
2022-08-22T21:36:00.467Z,20.20
2022-08-22T21:38:29.261Z,20.20
2022-08-22T21:41:02.273Z,20.20
2022-08-22T21:43:33.874Z,20.20
2022-08-22T21:46:04.447Z,20.20
2022-08-22T21:48:41.237Z,20.20
2022-08-22T21:51:28.501Z,20.10
2022-08-22T21:54:23.964Z,20.10
2022-08-22T21:56:53.547Z,20.00
2022-08-22T21:59:25.473Z,20.00
2022-08-22T22:01:57.192Z,20.10
2022-08-22T22:04:26.365Z,20.00
2022-08-22T22:06:57.189Z,19.90
2022-08-22T22:09:25.842Z,19.90
2022-08-22T22:11:54.491Z,19.90
2022-08-22T22:14:23.067Z,19.90
2022-08-22T22:16:51.866Z,19.90
2022-08-22T22:19:21.918Z,19.90
2022-08-22T22:21:50.663Z,19.90
2022-08-22T22:24:19.245Z,19.80
2022-08-22T22:26:47.876Z,19.80
2022-08-22T22:29:16.730Z,19.80
2022-08-22T22:31:45.326Z,19.70
2022-08-22T22:34:14.079Z,19.60
2022-08-22T22:36:44.716Z,19.60
2022-08-22T22:39:13.864Z,19.60
2022-08-22T22:41:42.530Z,19.60
2022-08-22T22:44:11.164Z,19.50
2022-08-22T22:46:40.033Z,19.50
2022-08-22T22:49:08.645Z,19.50
2022-08-22T22:51:37.449Z,19.40
2022-08-22T22:54:07.541Z,19.40
2022-08-22T22:56:40.005Z,19.40
2022-08-22T22:59:12.984Z,19.30
2022-08-22T23:01:57.217Z,19.30
2022-08-22T23:04:25.840Z,19.30
2022-08-22T23:06:54.541Z,19.20
2022-08-22T23:09:38.141Z,19.20
2022-08-22T23:12:13.253Z,19.20
2022-08-22T23:14:41.858Z,19.20
2022-08-22T23:17:10.645Z,19.20
2022-08-22T23:19:39.828Z,19.20
2022-08-22T23:22:08.678Z,19.10
2022-08-22T23:24:39.795Z,19.10
2022-08-22T23:27:09.845Z,19.00
2022-08-22T23:29:40.930Z,19.00
2022-08-22T23:32:10.614Z,18.90
2022-08-22T23:34:44.153Z,18.80
2022-08-22T23:37:13.747Z,18.80
2022-08-22T23:39:44.610Z,18.90
2022-08-22T23:42:13.964Z,18.80
2022-08-22T23:44:45.275Z,18.80
2022-08-22T23:47:14.641Z,18.80
2022-08-22T23:49:43.410Z,18.80
2022-08-22T23:52:12.916Z,18.80
2022-08-22T23:54:41.898Z,18.80
2022-08-22T23:57:12.725Z,18.80
2022-08-22T23:59:48.020Z,18.80
